sensor_id;sensor_type;location;lat;lon;timestamp;temperature;humidity
52024;DHT22;38038;45.922;13.604;2024-01-07T00:01:47;9.60;99.90
52024;DHT22;38038;45.922;13.604;2024-01-07T00:04:15;9.50;99.90
52024;DHT22;38038;45.922;13.604;2024-01-07T00:06:40;9.30;99.90
52024;DHT22;38038;45.922;13.604;2024-01-07T00:09:06;9.10;99.90
52024;DHT22;38038;45.922;13.604;2024-01-07T00:11:32;9.00;99.90
52024;DHT22;38038;45.922;13.604;2024-01-07T00:13:57;9.00;99.90
52024;DHT22;38038;45.922;13.604;2024-01-07T00:16:23;9.00;99.90
52024;DHT22;38038;45.922;13.604;2024-01-07T00:18:49;9.20;99.90
52024;DHT22;38038;45.922;13.604;2024-01-07T00:21:15;9.20;99.90
52024;DHT22;38038;45.922;13.604;2024-01-07T00:23:40;9.20;99.90
52024;DHT22;38038;45.922;13.604;2024-01-07T00:26:06;9.10;99.90
52024;DHT22;38038;45.922;13.604;2024-01-07T00:28:33;9.00;99.90
52024;DHT22;38038;45.922;13.604;2024-01-07T00:30:58;9.10;99.90
52024;DHT22;38038;45.922;13.604;2024-01-07T00:33:24;9.10;99.90
52024;DHT22;38038;45.922;13.604;2024-01-07T00:35:50;9.20;99.90
52024;DHT22;38038;45.922;13.604;2024-01-07T00:38:15;9.10;99.90
52024;DHT22;38038;45.922;13.604;2024-01-07T00:40:41;9.10;99.90
52024;DHT22;38038;45.922;13.604;2024-01-07T00:43:07;9.20;99.90
52024;DHT22;38038;45.922;13.604;2024-01-07T00:45:32;9.20;99.90
52024;DHT22;38038;45.922;13.604;2024-01-07T00:47:58;9.10;99.90
52024;DHT22;38038;45.922;13.604;2024-01-07T00:50:24;8.90;99.90
52024;DHT22;38038;45.922;13.604;2024-01-07T00:52:49;8.90;99.90
52024;DHT22;38038;45.922;13.604;2024-01-07T00:55:15;9.00;99.90
52024;DHT22;38038;45.922;13.604;2024-01-07T00:57:42;9.00;99.90
52024;DHT22;38038;45.922;13.604;2024-01-07T01:00:08;8.90;99.90
52024;DHT22;38038;45.922;13.604;2024-01-07T01:02:34;8.90;99.90
52024;DHT22;38038;45.922;13.604;2024-01-07T01:05:01;8.90;99.90
52024;DHT22;38038;45.922;13.604;2024-01-07T01:07:27;8.80;99.90
52024;DHT22;38038;45.922;13.604;2024-01-07T01:09:53;8.80;99.90
52024;DHT22;38038;45.922;13.604;2024-01-07T01:12:18;8.80;99.90
52024;DHT22;38038;45.922;13.604;2024-01-07T01:14:44;8.80;99.90
52024;DHT22;38038;45.922;13.604;2024-01-07T01:17:10;8.90;99.90
52024;DHT22;38038;45.922;13.604;2024-01-07T01:19:35;8.90;99.90
52024;DHT22;38038;45.922;13.604;2024-01-07T01:22:01;8.90;99.90
52024;DHT22;38038;45.922;13.604;2024-01-07T01:24:27;9.00;99.90
52024;DHT22;38038;45.922;13.604;2024-01-07T01:26:52;9.00;99.90
52024;DHT22;38038;45.922;13.604;2024-01-07T01:29:18;9.00;99.90
52024;DHT22;38038;45.922;13.604;2024-01-07T01:31:44;9.00;99.90
52024;DHT22;38038;45.922;13.604;2024-01-07T01:34:09;8.90;99.90
52024;DHT22;38038;45.922;13.604;2024-01-07T01:36:35;8.80;99.90
52024;DHT22;38038;45.922;13.604;2024-01-07T01:39:01;8.90;99.90
52024;DHT22;38038;45.922;13.604;2024-01-07T01:41:26;8.90;99.90
52024;DHT22;38038;45.922;13.604;2024-01-07T01:43:57;8.80;99.90
52024;DHT22;38038;45.922;13.604;2024-01-07T01:46:23;8.70;99.90
52024;DHT22;38038;45.922;13.604;2024-01-07T01:48:49;8.80;99.90
52024;DHT22;38038;45.922;13.604;2024-01-07T01:51:14;8.90;99.90
52024;DHT22;38038;45.922;13.604;2024-01-07T01:53:40;8.80;99.90
52024;DHT22;38038;45.922;13.604;2024-01-07T01:56:06;8.70;99.90
52024;DHT22;38038;45.922;13.604;2024-01-07T01:58:32;8.80;99.90
52024;DHT22;38038;45.922;13.604;2024-01-07T02:00:59;8.80;99.90
52024;DHT22;38038;45.922;13.604;2024-01-07T02:03:24;8.80;99.90
52024;DHT22;38038;45.922;13.604;2024-01-07T02:05:52;9.10;99.90
52024;DHT22;38038;45.922;13.604;2024-01-07T02:08:19;9.50;99.90
52024;DHT22;38038;45.922;13.604;2024-01-07T02:10:45;9.70;99.90
52024;DHT22;38038;45.922;13.604;2024-01-07T02:13:11;9.60;99.90
52024;DHT22;38038;45.922;13.604;2024-01-07T02:15:36;9.50;99.90
52024;DHT22;38038;45.922;13.604;2024-01-07T02:18:02;9.50;99.90
52024;DHT22;38038;45.922;13.604;2024-01-07T02:20:28;9.40;99.90
52024;DHT22;38038;45.922;13.604;2024-01-07T02:22:54;9.40;99.90
52024;DHT22;38038;45.922;13.604;2024-01-07T02:25:20;9.70;99.90
52024;DHT22;38038;45.922;13.604;2024-01-07T02:27:45;9.50;99.90
52024;DHT22;38038;45.922;13.604;2024-01-07T02:30:11;9.50;99.90
52024;DHT22;38038;45.922;13.604;2024-01-07T02:32:37;9.40;99.90
52024;DHT22;38038;45.922;13.604;2024-01-07T02:35:03;9.40;99.90
52024;DHT22;38038;45.922;13.604;2024-01-07T02:37:30;9.30;99.90
52024;DHT22;38038;45.922;13.604;2024-01-07T02:39:56;9.20;99.90
52024;DHT22;38038;45.922;13.604;2024-01-07T02:42:22;9.20;99.90
52024;DHT22;38038;45.922;13.604;2024-01-07T02:44:47;9.20;99.90
52024;DHT22;38038;45.922;13.604;2024-01-07T02:47:13;9.20;99.90
52024;DHT22;38038;45.922;13.604;2024-01-07T02:49:39;9.10;99.90
52024;DHT22;38038;45.922;13.604;2024-01-07T02:52:05;9.10;99.90
52024;DHT22;38038;45.922;13.604;2024-01-07T02:54:30;9.00;99.90
52024;DHT22;38038;45.922;13.604;2024-01-07T02:56:56;9.10;99.90
52024;DHT22;38038;45.922;13.604;2024-01-07T02:59:22;9.00;99.90
52024;DHT22;38038;45.922;13.604;2024-01-07T03:01:47;8.90;99.90
52024;DHT22;38038;45.922;13.604;2024-01-07T03:04:15;8.90;99.90
52024;DHT22;38038;45.922;13.604;2024-01-07T03:06:41;8.90;99.90
52024;DHT22;38038;45.922;13.604;2024-01-07T03:09:07;8.90;99.90
52024;DHT22;38038;45.922;13.604;2024-01-07T03:11:33;8.90;99.90
52024;DHT22;38038;45.922;13.604;2024-01-07T03:13:59;8.80;99.90
52024;DHT22;38038;45.922;13.604;2024-01-07T03:16:25;8.80;99.90
52024;DHT22;38038;45.922;13.604;2024-01-07T03:18:52;8.90;99.90
52024;DHT22;38038;45.922;13.604;2024-01-07T03:21:22;8.90;99.90
52024;DHT22;38038;45.922;13.604;2024-01-07T03:23:49;8.90;99.90
52024;DHT22;38038;45.922;13.604;2024-01-07T03:26:16;9.00;99.90
52024;DHT22;38038;45.922;13.604;2024-01-07T03:28:42;9.00;99.90
52024;DHT22;38038;45.922;13.604;2024-01-07T03:31:10;9.00;99.90
52024;DHT22;38038;45.922;13.604;2024-01-07T03:33:40;8.90;99.90
52024;DHT22;38038;45.922;13.604;2024-01-07T08:48:13;10.50;99.90
52024;DHT22;38038;45.922;13.604;2024-01-07T08:50:39;10.50;99.90
52024;DHT22;38038;45.922;13.604;2024-01-07T08:53:05;10.50;99.90
52024;DHT22;38038;45.922;13.604;2024-01-07T08:55:30;10.50;99.90
52024;DHT22;38038;45.922;13.604;2024-01-07T08:57:56;10.40;99.90
52024;DHT22;38038;45.922;13.604;2024-01-07T09:00:22;10.50;99.90
52024;DHT22;38038;45.922;13.604;2024-01-07T09:02:52;10.40;99.90
52024;DHT22;38038;45.922;13.604;2024-01-07T09:05:17;10.40;99.90
52024;DHT22;38038;45.922;13.604;2024-01-07T09:07:43;10.40;99.90
52024;DHT22;38038;45.922;13.604;2024-01-07T09:10:09;10.60;99.90
52024;DHT22;38038;45.922;13.604;2024-01-07T09:12:39;10.40;99.90
52024;DHT22;38038;45.922;13.604;2024-01-07T09:15:05;10.40;99.90
52024;DHT22;38038;45.922;13.604;2024-01-07T09:17:37;10.60;99.90
52024;DHT22;38038;45.922;13.604;2024-01-07T09:20:07;10.80;99.90
52024;DHT22;38038;45.922;13.604;2024-01-07T09:22:34;10.80;99.90
52024;DHT22;38038;45.922;13.604;2024-01-07T09:25:19;10.50;99.90
52024;DHT22;38038;45.922;13.604;2024-01-07T09:27:45;10.40;99.90
52024;DHT22;38038;45.922;13.604;2024-01-07T09:30:11;10.40;99.90
52024;DHT22;38038;45.922;13.604;2024-01-07T09:32:43;10.30;99.90
52024;DHT22;38038;45.922;13.604;2024-01-07T09:35:09;10.40;99.90
52024;DHT22;38038;45.922;13.604;2024-01-07T09:37:35;10.40;99.90
52024;DHT22;38038;45.922;13.604;2024-01-07T09:40:01;10.40;99.90
52024;DHT22;38038;45.922;13.604;2024-01-07T09:42:27;10.50;99.90
52024;DHT22;38038;45.922;13.604;2024-01-07T09:44:52;10.50;99.90
52024;DHT22;38038;45.922;13.604;2024-01-07T09:47:18;10.40;99.90
52024;DHT22;38038;45.922;13.604;2024-01-07T09:49:46;10.40;99.90
52024;DHT22;38038;45.922;13.604;2024-01-07T09:52:12;10.50;99.90
52024;DHT22;38038;45.922;13.604;2024-01-07T09:54:38;10.40;99.90
52024;DHT22;38038;45.922;13.604;2024-01-07T09:57:07;10.50;99.90
52024;DHT22;38038;45.922;13.604;2024-01-07T09:59:34;10.60;99.90
52024;DHT22;38038;45.922;13.604;2024-01-07T10:02:00;10.60;99.90
52024;DHT22;38038;45.922;13.604;2024-01-07T10:04:26;10.70;99.90
52024;DHT22;38038;45.922;13.604;2024-01-07T10:06:53;10.60;99.90
52024;DHT22;38038;45.922;13.604;2024-01-07T10:09:23;10.60;99.90
52024;DHT22;38038;45.922;13.604;2024-01-07T10:11:51;10.70;99.90
52024;DHT22;38038;45.922;13.604;2024-01-07T10:14:16;10.70;99.90
52024;DHT22;38038;45.922;13.604;2024-01-07T10:16:42;10.80;99.90
52024;DHT22;38038;45.922;13.604;2024-01-07T10:19:08;10.70;99.90
52024;DHT22;38038;45.922;13.604;2024-01-07T10:21:34;10.80;99.90
52024;DHT22;38038;45.922;13.604;2024-01-07T10:24:10;10.80;99.90
52024;DHT22;38038;45.922;13.604;2024-01-07T10:26:37;10.60;99.90
52024;DHT22;38038;45.922;13.604;2024-01-07T10:29:04;10.40;99.90
52024;DHT22;38038;45.922;13.604;2024-01-07T10:31:31;10.30;99.90
52024;DHT22;38038;45.922;13.604;2024-01-07T10:33:57;10.50;99.90
52024;DHT22;38038;45.922;13.604;2024-01-07T10:36:24;10.20;99.90
52024;DHT22;38038;45.922;13.604;2024-01-07T10:38:50;10.10;99.90
52024;DHT22;38038;45.922;13.604;2024-01-07T10:41:18;10.10;99.90
52024;DHT22;38038;45.922;13.604;2024-01-07T10:43:46;10.10;99.90
52024;DHT22;38038;45.922;13.604;2024-01-07T10:46:14;10.20;99.90
52024;DHT22;38038;45.922;13.604;2024-01-07T10:48:48;10.30;99.90
52024;DHT22;38038;45.922;13.604;2024-01-07T10:51:16;10.40;99.90
52024;DHT22;38038;45.922;13.604;2024-01-07T10:53:44;10.30;99.90
52024;DHT22;38038;45.922;13.604;2024-01-07T10:56:11;10.50;99.90
52024;DHT22;38038;45.922;13.604;2024-01-07T10:58:39;10.70;99.90
52024;DHT22;38038;45.922;13.604;2024-01-07T11:01:06;10.50;99.90
52024;DHT22;38038;45.922;13.604;2024-01-07T11:06:27;10.70;99.90
52024;DHT22;38038;45.922;13.604;2024-01-07T11:09:02;11.00;99.90
52024;DHT22;38038;45.922;13.604;2024-01-07T11:11:47;11.20;99.90
52024;DHT22;38038;45.922;13.604;2024-01-07T11:14:39;11.20;99.90
52024;DHT22;38038;45.922;13.604;2024-01-07T11:17:06;11.10;99.90
52024;DHT22;38038;45.922;13.604;2024-01-07T11:19:32;11.20;99.90
52024;DHT22;38038;45.922;13.604;2024-01-07T11:24:48;11.20;99.90
52024;DHT22;38038;45.922;13.604;2024-01-07T11:27:15;11.30;99.90
52024;DHT22;38038;45.922;13.604;2024-01-07T11:29:41;11.40;99.90
52024;DHT22;38038;45.922;13.604;2024-01-07T11:32:07;11.10;99.90
52024;DHT22;38038;45.922;13.604;2024-01-07T11:34:43;10.90;99.90
52024;DHT22;38038;45.922;13.604;2024-01-07T11:37:16;10.80;99.90
52024;DHT22;38038;45.922;13.604;2024-01-07T11:39:46;10.70;99.90
52024;DHT22;38038;45.922;13.604;2024-01-07T11:42:12;10.70;99.90
52024;DHT22;38038;45.922;13.604;2024-01-07T11:44:47;10.70;99.90
52024;DHT22;38038;45.922;13.604;2024-01-07T11:47:17;10.80;99.90
52024;DHT22;38038;45.922;13.604;2024-01-07T11:49:44;10.60;99.90
52024;DHT22;38038;45.922;13.604;2024-01-07T11:52:10;10.30;99.90
52024;DHT22;38038;45.922;13.604;2024-01-07T11:54:39;10.10;99.90
52024;DHT22;38038;45.922;13.604;2024-01-07T11:57:06;10.20;99.90
52024;DHT22;38038;45.922;13.604;2024-01-07T11:59:34;10.20;99.90
52024;DHT22;38038;45.922;13.604;2024-01-07T12:02:00;10.10;99.90
52024;DHT22;38038;45.922;13.604;2024-01-07T12:04:26;10.00;99.90
52024;DHT22;38038;45.922;13.604;2024-01-07T12:06:53;9.90;99.90
52024;DHT22;38038;45.922;13.604;2024-01-07T12:09:19;9.90;99.90
52024;DHT22;38038;45.922;13.604;2024-01-07T12:11:45;9.80;99.90
52024;DHT22;38038;45.922;13.604;2024-01-07T12:14:20;9.90;99.90
52024;DHT22;38038;45.922;13.604;2024-01-07T12:16:48;10.00;99.90
52024;DHT22;38038;45.922;13.604;2024-01-07T12:19:16;10.10;99.90
52024;DHT22;38038;45.922;13.604;2024-01-07T12:21:45;10.10;99.90
52024;DHT22;38038;45.922;13.604;2024-01-07T12:24:13;10.10;99.90
52024;DHT22;38038;45.922;13.604;2024-01-07T12:26:39;10.10;99.90
52024;DHT22;38038;45.922;13.604;2024-01-07T12:29:11;10.10;99.90
52024;DHT22;38038;45.922;13.604;2024-01-07T12:31:37;10.00;99.90
52024;DHT22;38038;45.922;13.604;2024-01-07T12:34:05;9.90;99.90
52024;DHT22;38038;45.922;13.604;2024-01-07T12:36:31;10.00;99.90
52024;DHT22;38038;45.922;13.604;2024-01-07T12:39:02;10.20;99.90
52024;DHT22;38038;45.922;13.604;2024-01-07T12:41:27;10.30;99.90
52024;DHT22;38038;45.922;13.604;2024-01-07T12:43:56;10.50;99.90
52024;DHT22;38038;45.922;13.604;2024-01-07T12:46:22;10.60;99.90
52024;DHT22;38038;45.922;13.604;2024-01-07T12:48:48;10.60;99.90
52024;DHT22;38038;45.922;13.604;2024-01-07T12:51:13;10.60;99.90
52024;DHT22;38038;45.922;13.604;2024-01-07T12:53:39;10.50;99.90
52024;DHT22;38038;45.922;13.604;2024-01-07T12:56:05;10.50;99.90
52024;DHT22;38038;45.922;13.604;2024-01-07T12:58:31;10.50;99.90
52024;DHT22;38038;45.922;13.604;2024-01-07T13:00:57;10.50;99.90
52024;DHT22;38038;45.922;13.604;2024-01-07T13:03:23;10.40;99.90
52024;DHT22;38038;45.922;13.604;2024-01-07T13:05:50;10.50;99.90
52024;DHT22;38038;45.922;13.604;2024-01-07T13:08:16;10.30;99.90
52024;DHT22;38038;45.922;13.604;2024-01-07T13:10:44;10.30;99.90
52024;DHT22;38038;45.922;13.604;2024-01-07T13:13:12;10.30;99.90
52024;DHT22;38038;45.922;13.604;2024-01-07T13:15:38;10.20;99.90
52024;DHT22;38038;45.922;13.604;2024-01-07T13:18:04;10.10;99.90
52024;DHT22;38038;45.922;13.604;2024-01-07T13:20:30;10.20;99.90
52024;DHT22;38038;45.922;13.604;2024-01-07T13:22:56;10.20;99.90
52024;DHT22;38038;45.922;13.604;2024-01-07T13:25:21;10.40;99.90
52024;DHT22;38038;45.922;13.604;2024-01-07T13:27:47;10.30;99.90
52024;DHT22;38038;45.922;13.604;2024-01-07T13:30:13;10.30;99.90
52024;DHT22;38038;45.922;13.604;2024-01-07T13:32:42;10.30;99.90
52024;DHT22;38038;45.922;13.604;2024-01-07T13:35:08;10.30;99.90
52024;DHT22;38038;45.922;13.604;2024-01-07T13:37:38;10.20;99.90
52024;DHT22;38038;45.922;13.604;2024-01-07T13:40:07;10.20;99.90
52024;DHT22;38038;45.922;13.604;2024-01-07T13:42:36;10.20;99.90
52024;DHT22;38038;45.922;13.604;2024-01-07T13:45:05;10.30;99.90
52024;DHT22;38038;45.922;13.604;2024-01-07T13:47:31;10.30;99.90
52024;DHT22;38038;45.922;13.604;2024-01-07T13:50:03;10.30;99.90
52024;DHT22;38038;45.922;13.604;2024-01-07T13:52:29;10.30;99.90
52024;DHT22;38038;45.922;13.604;2024-01-07T13:54:57;10.30;99.90
52024;DHT22;38038;45.922;13.604;2024-01-07T13:57:28;10.20;99.90
52024;DHT22;38038;45.922;13.604;2024-01-07T13:59:57;10.20;99.90
52024;DHT22;38038;45.922;13.604;2024-01-07T14:02:23;10.20;99.90
52024;DHT22;38038;45.922;13.604;2024-01-07T14:04:48;10.20;99.90
52024;DHT22;38038;45.922;13.604;2024-01-07T14:07:20;10.20;99.90
52024;DHT22;38038;45.922;13.604;2024-01-07T14:09:46;10.20;99.90
52024;DHT22;38038;45.922;13.604;2024-01-07T14:12:11;10.20;99.90
52024;DHT22;38038;45.922;13.604;2024-01-07T14:14:37;10.30;99.90
52024;DHT22;38038;45.922;13.604;2024-01-07T14:17:03;10.30;99.90
52024;DHT22;38038;45.922;13.604;2024-01-07T14:19:29;10.30;99.90
52024;DHT22;38038;45.922;13.604;2024-01-07T14:21:54;10.30;99.90
52024;DHT22;38038;45.922;13.604;2024-01-07T14:24:21;10.40;99.90
52024;DHT22;38038;45.922;13.604;2024-01-07T14:26:47;10.30;99.90
52024;DHT22;38038;45.922;13.604;2024-01-07T14:29:12;10.40;99.90
52024;DHT22;38038;45.922;13.604;2024-01-07T14:31:38;10.40;99.90
52024;DHT22;38038;45.922;13.604;2024-01-07T14:34:04;10.30;99.90
52024;DHT22;38038;45.922;13.604;2024-01-07T14:36:30;10.20;99.90
52024;DHT22;38038;45.922;13.604;2024-01-07T14:38:56;10.20;99.90
52024;DHT22;38038;45.922;13.604;2024-01-07T14:41:21;10.00;99.90
52024;DHT22;38038;45.922;13.604;2024-01-07T14:43:47;10.00;99.90
52024;DHT22;38038;45.922;13.604;2024-01-07T14:46:13;9.90;99.90
52024;DHT22;38038;45.922;13.604;2024-01-07T14:48:38;9.70;99.90
52024;DHT22;38038;45.922;13.604;2024-01-07T14:51:04;9.70;99.90
52024;DHT22;38038;45.922;13.604;2024-01-07T14:53:30;9.60;99.90
52024;DHT22;38038;45.922;13.604;2024-01-07T14:55:57;9.60;99.90
52024;DHT22;38038;45.922;13.604;2024-01-07T14:58:24;9.60;99.90
52024;DHT22;38038;45.922;13.604;2024-01-07T15:00:50;9.60;99.90
52024;DHT22;38038;45.922;13.604;2024-01-07T15:03:16;9.50;99.90
52024;DHT22;38038;45.922;13.604;2024-01-07T15:05:42;9.50;99.90
52024;DHT22;38038;45.922;13.604;2024-01-07T15:08:08;9.50;99.90
52024;DHT22;38038;45.922;13.604;2024-01-07T15:10:41;9.60;99.90
52024;DHT22;38038;45.922;13.604;2024-01-07T15:13:07;9.70;99.90
52024;DHT22;38038;45.922;13.604;2024-01-07T15:15:33;9.60;99.90
52024;DHT22;38038;45.922;13.604;2024-01-07T15:17:59;9.50;99.90
52024;DHT22;38038;45.922;13.604;2024-01-07T15:20:25;9.50;99.90
52024;DHT22;38038;45.922;13.604;2024-01-07T15:22:50;9.50;99.90
52024;DHT22;38038;45.922;13.604;2024-01-07T15:25:17;9.40;99.90
52024;DHT22;38038;45.922;13.604;2024-01-07T15:27:43;9.40;99.90
52024;DHT22;38038;45.922;13.604;2024-01-07T15:30:10;9.30;99.90
52024;DHT22;38038;45.922;13.604;2024-01-07T15:32:36;9.30;99.90
52024;DHT22;38038;45.922;13.604;2024-01-07T15:35:03;9.40;99.90
52024;DHT22;38038;45.922;13.604;2024-01-07T15:37:32;9.40;99.90
52024;DHT22;38038;45.922;13.604;2024-01-07T15:39:58;9.40;99.90
52024;DHT22;38038;45.922;13.604;2024-01-07T15:42:24;9.30;99.90
52024;DHT22;38038;45.922;13.604;2024-01-07T15:44:51;9.40;99.90
52024;DHT22;38038;45.922;13.604;2024-01-07T15:47:18;9.40;99.90
52024;DHT22;38038;45.922;13.604;2024-01-07T15:49:43;9.40;99.90
52024;DHT22;38038;45.922;13.604;2024-01-07T15:52:09;9.30;99.90
52024;DHT22;38038;45.922;13.604;2024-01-07T15:54:35;9.20;99.90
52024;DHT22;38038;45.922;13.604;2024-01-07T15:57:01;9.10;99.90
52024;DHT22;38038;45.922;13.604;2024-01-07T15:59:27;9.00;99.90
52024;DHT22;38038;45.922;13.604;2024-01-07T16:01:55;9.00;99.90
52024;DHT22;38038;45.922;13.604;2024-01-07T16:04:23;8.90;99.90
52024;DHT22;38038;45.922;13.604;2024-01-07T16:06:54;8.90;99.90
52024;DHT22;38038;45.922;13.604;2024-01-07T16:09:20;8.90;99.90
52024;DHT22;38038;45.922;13.604;2024-01-07T16:11:47;8.90;99.90
52024;DHT22;38038;45.922;13.604;2024-01-07T16:14:15;8.80;99.90
52024;DHT22;38038;45.922;13.604;2024-01-07T16:16:47;8.80;99.90
52024;DHT22;38038;45.922;13.604;2024-01-07T16:19:13;8.70;99.90
52024;DHT22;38038;45.922;13.604;2024-01-07T16:21:41;8.70;99.90
52024;DHT22;38038;45.922;13.604;2024-01-07T16:24:12;8.70;99.90
52024;DHT22;38038;45.922;13.604;2024-01-07T16:26:50;8.70;99.90
52024;DHT22;38038;45.922;13.604;2024-01-07T16:29:16;8.80;99.90
52024;DHT22;38038;45.922;13.604;2024-01-07T16:31:46;9.00;99.90
52024;DHT22;38038;45.922;13.604;2024-01-07T16:34:12;9.00;99.90
52024;DHT22;38038;45.922;13.604;2024-01-07T16:36:41;9.00;99.90
52024;DHT22;38038;45.922;13.604;2024-01-07T16:39:09;9.00;99.90
52024;DHT22;38038;45.922;13.604;2024-01-07T16:41:38;9.00;99.90
52024;DHT22;38038;45.922;13.604;2024-01-07T16:44:06;9.00;99.90
52024;DHT22;38038;45.922;13.604;2024-01-07T16:46:35;9.10;99.90
52024;DHT22;38038;45.922;13.604;2024-01-07T16:49:02;9.10;99.90
52024;DHT22;38038;45.922;13.604;2024-01-07T16:51:28;9.20;99.90
52024;DHT22;38038;45.922;13.604;2024-01-07T16:53:54;9.30;99.90
52024;DHT22;38038;45.922;13.604;2024-01-07T16:56:20;9.20;99.90
52024;DHT22;38038;45.922;13.604;2024-01-07T16:58:46;9.20;99.90
52024;DHT22;38038;45.922;13.604;2024-01-07T17:01:13;9.10;99.90
52024;DHT22;38038;45.922;13.604;2024-01-07T17:03:39;9.10;99.90
52024;DHT22;38038;45.922;13.604;2024-01-07T17:06:05;9.00;99.90
52024;DHT22;38038;45.922;13.604;2024-01-07T17:08:32;9.10;99.90
52024;DHT22;38038;45.922;13.604;2024-01-07T17:10:58;9.10;99.90
52024;DHT22;38038;45.922;13.604;2024-01-07T17:13:24;9.30;99.90
52024;DHT22;38038;45.922;13.604;2024-01-07T17:15:50;9.40;99.90
52024;DHT22;38038;45.922;13.604;2024-01-07T17:18:15;9.50;99.90
52024;DHT22;38038;45.922;13.604;2024-01-07T17:20:41;9.40;99.90
52024;DHT22;38038;45.922;13.604;2024-01-07T17:23:07;9.30;99.90
52024;DHT22;38038;45.922;13.604;2024-01-07T17:25:32;9.30;99.90
52024;DHT22;38038;45.922;13.604;2024-01-07T17:27:58;9.30;99.90
52024;DHT22;38038;45.922;13.604;2024-01-07T17:30:24;9.40;99.90
52024;DHT22;38038;45.922;13.604;2024-01-07T17:32:54;9.30;99.90
52024;DHT22;38038;45.922;13.604;2024-01-07T17:35:21;9.20;99.90
52024;DHT22;38038;45.922;13.604;2024-01-07T17:37:47;9.20;99.90
52024;DHT22;38038;45.922;13.604;2024-01-07T17:40:15;9.10;99.90
52024;DHT22;38038;45.922;13.604;2024-01-07T17:42:48;9.00;99.90
52024;DHT22;38038;45.922;13.604;2024-01-07T17:45:18;9.10;99.90
52024;DHT22;38038;45.922;13.604;2024-01-07T17:47:49;9.10;99.90
52024;DHT22;38038;45.922;13.604;2024-01-07T17:50:22;9.10;99.90
52024;DHT22;38038;45.922;13.604;2024-01-07T17:52:47;9.10;99.90
52024;DHT22;38038;45.922;13.604;2024-01-07T17:55:14;9.00;99.90
52024;DHT22;38038;45.922;13.604;2024-01-07T17:57:43;9.20;99.90
52024;DHT22;38038;45.922;13.604;2024-01-07T18:00:09;9.10;99.90
52024;DHT22;38038;45.922;13.604;2024-01-07T18:02:37;9.10;99.90
52024;DHT22;38038;45.922;13.604;2024-01-07T18:05:08;9.10;99.90
52024;DHT22;38038;45.922;13.604;2024-01-07T18:07:34;9.10;99.90
52024;DHT22;38038;45.922;13.604;2024-01-07T18:10:00;9.00;99.90
52024;DHT22;38038;45.922;13.604;2024-01-07T18:12:26;9.00;99.90
52024;DHT22;38038;45.922;13.604;2024-01-07T18:14:52;9.00;99.90
52024;DHT22;38038;45.922;13.604;2024-01-07T18:17:17;9.00;99.90
52024;DHT22;38038;45.922;13.604;2024-01-07T18:19:43;9.10;99.90
52024;DHT22;38038;45.922;13.604;2024-01-07T18:22:09;9.10;99.90
52024;DHT22;38038;45.922;13.604;2024-01-07T18:24:38;9.10;99.90
52024;DHT22;38038;45.922;13.604;2024-01-07T18:27:04;9.10;99.90
52024;DHT22;38038;45.922;13.604;2024-01-07T18:29:30;9.00;99.90
52024;DHT22;38038;45.922;13.604;2024-01-07T18:31:57;9.10;99.90
52024;DHT22;38038;45.922;13.604;2024-01-07T18:34:27;9.10;99.90
52024;DHT22;38038;45.922;13.604;2024-01-07T18:36:54;8.90;99.90
52024;DHT22;38038;45.922;13.604;2024-01-07T18:39:21;9.00;99.90
52024;DHT22;38038;45.922;13.604;2024-01-07T18:41:47;9.00;99.90
52024;DHT22;38038;45.922;13.604;2024-01-07T18:44:16;9.00;99.90
52024;DHT22;38038;45.922;13.604;2024-01-07T18:46:45;8.90;99.90
52024;DHT22;38038;45.922;13.604;2024-01-07T18:49:11;9.00;99.90
52024;DHT22;38038;45.922;13.604;2024-01-07T18:51:41;9.00;99.90
52024;DHT22;38038;45.922;13.604;2024-01-07T18:54:14;9.00;99.90
52024;DHT22;38038;45.922;13.604;2024-01-07T18:56:45;9.10;99.90
52024;DHT22;38038;45.922;13.604;2024-01-07T18:59:14;9.00;99.90
52024;DHT22;38038;45.922;13.604;2024-01-07T19:01:42;9.00;99.90
52024;DHT22;38038;45.922;13.604;2024-01-07T19:04:14;9.00;99.90
52024;DHT22;38038;45.922;13.604;2024-01-07T19:06:46;9.00;99.90
52024;DHT22;38038;45.922;13.604;2024-01-07T19:09:13;9.10;99.90
52024;DHT22;38038;45.922;13.604;2024-01-07T19:11:45;9.10;99.90
52024;DHT22;38038;45.922;13.604;2024-01-07T19:14:15;9.10;99.90
52024;DHT22;38038;45.922;13.604;2024-01-07T19:16:43;9.00;99.90
52024;DHT22;38038;45.922;13.604;2024-01-07T19:19:16;9.00;99.90
52024;DHT22;38038;45.922;13.604;2024-01-07T19:21:44;9.10;99.90
52024;DHT22;38038;45.922;13.604;2024-01-07T19:24:13;9.10;99.90
52024;DHT22;38038;45.922;13.604;2024-01-07T19:26:42;9.20;99.90
52024;DHT22;38038;45.922;13.604;2024-01-07T19:29:07;9.20;99.90
52024;DHT22;38038;45.922;13.604;2024-01-07T19:31:36;9.20;99.90
52024;DHT22;38038;45.922;13.604;2024-01-07T19:34:02;9.20;99.90
52024;DHT22;38038;45.922;13.604;2024-01-07T19:36:29;9.20;99.90
52024;DHT22;38038;45.922;13.604;2024-01-07T19:38:55;9.20;99.90
52024;DHT22;38038;45.922;13.604;2024-01-07T19:41:30;9.10;99.90
52024;DHT22;38038;45.922;13.604;2024-01-07T19:44:00;9.00;99.90
52024;DHT22;38038;45.922;13.604;2024-01-07T19:46:32;9.10;99.90
52024;DHT22;38038;45.922;13.604;2024-01-07T19:49:03;9.10;99.90
52024;DHT22;38038;45.922;13.604;2024-01-07T19:51:32;9.00;99.90
52024;DHT22;38038;45.922;13.604;2024-01-07T19:54:00;9.00;99.90
52024;DHT22;38038;45.922;13.604;2024-01-07T19:56:30;9.00;99.90
52024;DHT22;38038;45.922;13.604;2024-01-07T19:59:02;8.90;99.90
52024;DHT22;38038;45.922;13.604;2024-01-07T20:01:37;9.00;99.90
52024;DHT22;38038;45.922;13.604;2024-01-07T20:04:10;9.10;99.90
52024;DHT22;38038;45.922;13.604;2024-01-07T20:06:38;8.90;99.90
52024;DHT22;38038;45.922;13.604;2024-01-07T20:09:10;8.90;99.90
52024;DHT22;38038;45.922;13.604;2024-01-07T20:11:44;8.90;99.90
52024;DHT22;38038;45.922;13.604;2024-01-07T20:14:22;9.10;99.90
52024;DHT22;38038;45.922;13.604;2024-01-07T20:16:50;8.90;99.90
52024;DHT22;38038;45.922;13.604;2024-01-07T20:19:18;8.90;99.90
52024;DHT22;38038;45.922;13.604;2024-01-07T20:21:46;8.90;99.90
52024;DHT22;38038;45.922;13.604;2024-01-07T20:24:32;8.80;99.90
52024;DHT22;38038;45.922;13.604;2024-01-07T20:27:03;8.80;99.90
52024;DHT22;38038;45.922;13.604;2024-01-07T20:29:40;8.70;99.90
52024;DHT22;38038;45.922;13.604;2024-01-07T20:32:10;8.70;99.90
52024;DHT22;38038;45.922;13.604;2024-01-07T20:34:36;8.80;99.90
52024;DHT22;38038;45.922;13.604;2024-01-07T20:37:08;8.80;99.90
52024;DHT22;38038;45.922;13.604;2024-01-07T20:39:36;8.80;99.90
52024;DHT22;38038;45.922;13.604;2024-01-07T20:42:07;8.80;99.90
52024;DHT22;38038;45.922;13.604;2024-01-07T20:44:40;8.70;99.90